Pagina principale
METAR-TAF:

METAR-TAF

Aeroporti :

Aeroporto di Dubrovnik

Ragusa, Croazia

latitudine: 42-34N, longitudine: 018-16E, altezza: 157 m

Osservazione

Il bollettino è stato emesso 37 minuti fa, alle 00:00 UTC
Vento 1 kt da direzioni variabili
Temperature 13°C
Umidità 82%
Pressione 1011 hPa
Visibilità 10 km o più
Poco nuvoloso ad un'altezza di 6500 ft

METAR: LDDU 160000Z VRB01KT 9999 FEW065 13/10 Q1011

Ora: 02:37 (00:37 UTC)

Previsione

Il bollettino è stato emesso 1 ora e 12 minuti fa, alle 23:25 UTC
Previsione valida dal 16 alle 00 UTC al 17 alle 00 UTC
Vento 2 kt da direzioni variabili
Visibilità 10 km o più
nessuna nube inferiore a 1500 m e nessun cumulonembo

TAF: LDDU 152325Z 1600/1700 VRB02KT CAVOK TX19/1614Z TN13/1600Z

Osservazioni e previsioni meteorologiche di più di 4000 aeroporti (messaggi METAR e TAF).

Le stazioni disponibili sono rappresentate dai dischi gialli e rossi sulla carta.

Puntare il mouse per vedere il nome della stazione.

Clicca sopra per visualizzare le osservazioni e previsioni meteorologiche.

Per cambiare la mappa : fare clic sui pulsanti verdi con una croce nera per ingrandire, il pulsante verde con un trattino per diminuire, o sulla freccia verde per le mappe adiacenti.


METAR-TAF: